createdAt,value
2022-10-04T00:04:22.583Z,9.4
2022-10-04T00:10:12.059Z,9.5
2022-10-04T00:16:05.144Z,9.4
2022-10-04T00:21:56.540Z,9.6
2022-10-04T00:27:46.981Z,9.5
2022-10-04T00:33:40.861Z,9.6
2022-10-04T00:39:31.933Z,9.2
2022-10-04T00:45:26.420Z,9.2
2022-10-04T00:51:18.290Z,9.3
2022-10-04T00:57:09.936Z,9.3
2022-10-04T01:03:01.333Z,9.5
2022-10-04T01:08:53.641Z,9.4
2022-10-04T01:14:44.850Z,9.4
2022-10-04T01:20:35.474Z,9.5
2022-10-04T01:26:26.091Z,9.2
2022-10-04T01:32:17.117Z,9.6
2022-10-04T01:38:08.105Z,9.3
2022-10-04T01:44:01.373Z,9.2
2022-10-04T01:49:51.051Z,9.3
2022-10-04T01:55:40.221Z,9.3
2022-10-04T02:01:30.726Z,9.4
2022-10-04T02:07:20.903Z,9.3
2022-10-04T02:13:11.111Z,9.1
2022-10-04T02:19:01.325Z,9.4
2022-10-04T02:24:50.918Z,9.3
2022-10-04T02:30:40.455Z,9.2
2022-10-04T02:36:30.363Z,9.1
2022-10-04T02:42:20.956Z,9.3
2022-10-04T02:48:12.578Z,9.5
2022-10-04T02:54:03.768Z,9.7
2022-10-04T02:59:54.751Z,9.6
2022-10-04T03:05:45.201Z,9.6
2022-10-04T03:11:35.308Z,9.6
2022-10-04T03:17:27.224Z,9.6
2022-10-04T03:23:19.138Z,9.7
2022-10-04T03:29:10.613Z,9.9
2022-10-04T03:35:00.998Z,9.7
2022-10-04T03:40:51.291Z,9.8
2022-10-04T03:46:42.627Z,9.8
2022-10-04T03:52:37.558Z,9.8
2022-10-04T03:58:27.647Z,9.6
2022-10-04T04:04:19.276Z,9.8
2022-10-04T04:10:13.231Z,9.7
2022-10-04T04:16:05.684Z,9.8
2022-10-04T04:21:57.212Z,9.7
2022-10-04T04:27:48.480Z,9.6
2022-10-04T04:33:40.320Z,9.7
2022-10-04T04:39:31.828Z,9.6
2022-10-04T04:45:21.567Z,9.5
2022-10-04T04:51:12.795Z,9.7
2022-10-04T04:57:02.934Z,9.6
2022-10-04T05:02:57.628Z,9.8
2022-10-04T05:08:48.368Z,9.6
2022-10-04T05:14:39.274Z,9.5
2022-10-04T05:20:31.029Z,9.3
2022-10-04T05:26:22.258Z,9.4
2022-10-04T05:32:13.816Z,9.6
2022-10-04T05:38:05.759Z,9.2
2022-10-04T05:43:58.116Z,9.5
2022-10-04T05:49:51.507Z,9.4
2022-10-04T05:55:44.719Z,9.5
2022-10-04T06:01:36.378Z,9.4
2022-10-04T06:07:28.790Z,9.5
2022-10-04T06:13:20.962Z,9.4
2022-10-04T06:19:12.987Z,9.6
2022-10-04T08:03:27.208Z,10.9
2022-10-04T09:35:29.635Z,12.5
2022-10-04T10:07:35.832Z,13.3
2022-10-04T10:13:39.583Z,13.5
2022-10-04T10:25:50.920Z,13.9
2022-10-04T10:32:08.643Z,14.1
2022-10-04T11:04:45.953Z,15
2022-10-04T11:10:44.050Z,15.1
2022-10-04T11:29:40.314Z,15.8
2022-10-04T11:35:51.635Z,15.8
2022-10-04T11:54:06.100Z,16.3
2022-10-04T12:06:30.107Z,16.7
2022-10-04T12:12:38.923Z,16.8
2022-10-04T12:24:43.754Z,17
2022-10-04T12:37:08.968Z,17.1
2022-10-04T12:43:03.868Z,17.2
2022-10-04T12:55:00.042Z,17.5
2022-10-04T13:00:49.665Z,17.7
2022-10-04T13:06:46.558Z,17.7
2022-10-04T13:12:39.532Z,18
2022-10-04T13:18:32.500Z,18
2022-10-04T13:24:26.169Z,18.1
2022-10-04T13:30:18.037Z,18.2
2022-10-04T13:36:20.971Z,18.2
2022-10-04T13:42:13.232Z,18.4
2022-10-04T13:48:09.321Z,18.5
2022-10-04T13:54:10.766Z,18.6
2022-10-04T14:00:04.148Z,18.6
2022-10-04T14:05:56.559Z,18.7
2022-10-04T14:11:47.770Z,18.8
2022-10-04T14:17:48.496Z,19
2022-10-04T14:23:39.463Z,18.9
2022-10-04T14:29:32.913Z,18.9
2022-10-04T14:35:26.303Z,19
2022-10-04T14:41:18.178Z,19
2022-10-04T14:47:11.535Z,19
2022-10-04T14:53:03.389Z,19
2022-10-04T14:59:00.454Z,19.1
2022-10-04T15:04:55.443Z,19.2
2022-10-04T15:10:56.419Z,19.2
2022-10-04T15:16:49.016Z,19.1
2022-10-04T15:29:13.456Z,19
2022-10-04T15:35:04.207Z,19
2022-10-04T15:40:55.294Z,18.9
2022-10-04T15:46:48.078Z,18.9
2022-10-04T15:52:38.943Z,18.7
2022-10-04T15:58:29.368Z,18.5
2022-10-04T16:04:20.511Z,18.4
2022-10-04T16:10:20.306Z,18.3
2022-10-04T16:16:10.830Z,18.1
2022-10-04T16:22:09.278Z,18
2022-10-04T16:27:59.344Z,17.8
2022-10-04T16:33:52.502Z,17.6
2022-10-04T16:39:46.230Z,17.5
2022-10-04T16:45:37.671Z,17.4
2022-10-04T16:51:28.444Z,17.1
2022-10-04T16:57:18.911Z,16.8
2022-10-04T17:03:09.604Z,16.7
2022-10-04T17:08:59.905Z,16.2
2022-10-04T17:14:51.175Z,16
2022-10-04T17:20:41.176Z,15.9
2022-10-04T17:26:33.461Z,15.6
2022-10-04T17:32:23.777Z,15.5
2022-10-04T17:38:13.730Z,15.3
2022-10-04T17:44:05.109Z,15.1
2022-10-04T17:49:54.938Z,15
2022-10-04T17:55:45.137Z,14.9
2022-10-04T18:01:35.327Z,14.7
2022-10-04T18:07:27.297Z,14.5
2022-10-04T18:13:16.849Z,14.4
2022-10-04T18:19:07.718Z,14.3
2022-10-04T18:24:57.965Z,14.3
2022-10-04T18:30:48.503Z,14.1
2022-10-04T18:36:39.744Z,14
2022-10-04T18:42:31.473Z,14.1
2022-10-04T18:48:21.564Z,13.9
2022-10-04T18:54:12.426Z,13.6
2022-10-04T19:00:02.815Z,13.5
2022-10-04T19:05:53.535Z,13.6
2022-10-04T19:11:43.846Z,13.3
2022-10-04T19:17:33.953Z,13.3
2022-10-04T19:23:26.342Z,13.3
2022-10-04T19:29:17.546Z,13.1
2022-10-04T19:35:11.860Z,12.9
2022-10-04T19:41:02.629Z,12.8
2022-10-04T19:46:53.268Z,12.8
2022-10-04T19:52:44.273Z,12.7
2022-10-04T19:58:38.852Z,12.6
2022-10-04T20:04:28.897Z,12.5
2022-10-04T20:10:22.525Z,12.5
2022-10-04T20:16:13.907Z,12.6
2022-10-04T20:22:07.898Z,12.5
2022-10-04T20:28:01.973Z,12.5
2022-10-04T20:33:53.895Z,12.6
2022-10-04T20:39:47.405Z,12.5
2022-10-04T20:45:43.325Z,12.6
2022-10-04T20:51:34.966Z,12.7
2022-10-04T20:57:28.475Z,12.4
2022-10-04T21:03:26.891Z,12.3
2022-10-04T21:09:16.892Z,12.3
2022-10-04T21:15:09.719Z,12.1
2022-10-04T21:21:03.431Z,12
2022-10-04T21:26:54.103Z,12
2022-10-04T21:32:43.774Z,12
2022-10-04T21:38:33.968Z,11.9
2022-10-04T21:44:24.104Z,12
2022-10-04T21:50:14.339Z,11.9
2022-10-04T21:56:03.755Z,11.8
2022-10-04T22:01:52.111Z,11.8
2022-10-04T22:07:42.112Z,11.9
2022-10-04T22:13:30.355Z,11.9
2022-10-04T22:19:18.360Z,11.7
2022-10-04T22:25:09.307Z,11.9
2022-10-04T22:30:57.723Z,12.1
2022-10-04T22:36:46.382Z,12.1
2022-10-04T22:42:36.163Z,12
2022-10-04T22:48:24.946Z,11.9
2022-10-04T22:54:13.745Z,11.9
2022-10-04T23:00:02.233Z,12
2022-10-04T23:05:50.290Z,11.8
2022-10-04T23:11:38.625Z,11.8
2022-10-04T23:17:28.364Z,11.8
2022-10-04T23:23:16.683Z,11.9
2022-10-04T23:29:05.603Z,11.8
2022-10-04T23:34:56.746Z,11.8
2022-10-04T23:40:45.460Z,11.8
2022-10-04T23:46:33.855Z,11.8
2022-10-04T23:52:22.505Z,11.8
2022-10-04T23:58:11.401Z,11.8
